Terminal Aerodrome Forecast
Issued by NWS

Home | Current Version | Previous Version | Graphics & Text | Print | Product List | Glossary On
Versions: 1 2 3 4 5 6 7 8 9 10 11 12 13 14 15 16 17 18 19 20 21 22 23 24 25 26 27 28 29 30 31 32 33 34 35 36 37 38
000
FTUS43 KGRB 010500
TAFRHI
TAF
KRHI 010529Z 0106/0206 18008KT 5SM -SHRA VCTS SCT030 BKN050CB
      OVC100 WS010/20035KT
     FM010900 19008KT 3SM SHRA VCTS BKN015CB OVC030 WS010/20040KT
      TEMPO 0111/0115 2SM +SHRA BKN009 OVC015
     FM011600 24010G16KT 6SM BR VCSH SCT009 OVC015
     FM012000 27010G18KT P6SM SCT015 SCT100=

USA.gov is the U.S. government's official web portal to all federal, state and local government web resources and services.